KEKS Airport (Ennis - Big Sky) Information

FAA: EKS - ICAO: KEKS

KEKS Airport Location

State Montana
County Madison
City Ennis
KEKS Airport is 6 miles southeast of Ennis, MT.
Latitude 45-16-27.7000N
Longitude 111-38-55.9000W
Elevation 5,422ft

KEKS Airport METARs

METAR KEKS 262230Z AUTO 17013G20KT 10SM FEW075 FEW120 07/M07 A3017 RMK AO2
Altimeter 30.17"
Temperature 7.0°C (44.6°F)
Wind 170° at 13KT with gusts to 20KT
Clouds few at 7,500ft few at 12,000ft
Visibility 10.0mi
Time observed: 2021-11-26T22:30:00Z

KEKS Airport Details

Status Operational
Activation August 1975
Ownership Public
Usage Public
Chart GREAT FALLS
ATC on-site No
Beacon schedule sunset-sunrise
Beacon color clear green

KEKS Airport Contacts

Owner MADISON COUNTY
Owner address MADISON COUNTY COURTHOUSE, PO BOX 278, VIRGINIA CITY, MT 59755-0278
Owner phone 406-843-4277
Manager LESLIE RUFF
Manager address 6149 CUSTER FRONTAGE RD., CUSTER, MT 59024
Manager phone 406-856-4164

KEKS Airport (Ennis - Big Sky) Radio Frequencies

KEKS (Airport) Radio Frequencies

UNICOM 122.8
Common traffic advisory frequency (CTAF) 122.8